Time;durP1;ratioP1;P1;durP2;ratioP2;P2;SDS_P1;SDS_P2;PMS_P1;PMS_P2;Temp;Humidity;BMP_temperature;BMP_pressure;BME280_temperature;BME280_humidity;BME280_pressure;Samples;Min_cycle;Max_cycle;Signal;HPM_P1;HPM_P2
2022/02/04 00:24:20;;;;;;;0.20;0.20;;;;;;;5.00;99.07;99183.00;5000588;28;20273;-68
2022/02/04 00:26:53;;;;;;;0.30;0.30;;;;;;;5.02;99.05;99181.28;5001494;28;20046;-68
2022/02/04 00:29:31;;;;;;;0.30;0.30;;;;;;;5.04;99.01;99177.00;5003935;28;20077;-67
2022/02/04 00:32:03;;;;;;;0.30;0.30;;;;;;;5.03;99.12;99166.72;5004411;28;20034;-68
2022/02/04 00:34:36;;;;;;;0.40;0.40;;;;;;;5.02;99.06;99160.72;5004442;28;20038;-67
2022/02/04 00:39:38;;;;;;;0.30;0.30;;;;;;;5.01;99.22;99153.00;5003771;28;20125;-67
2022/02/04 00:42:08;;;;;;;0.40;0.40;;;;;;;5.01;98.98;99163.28;5004108;28;20030;-68
2022/02/04 00:44:35;;;;;;;0.30;0.30;;;;;;;5.01;98.97;99166.72;5003894;28;20084;-67
2022/02/04 00:52:08;;;;;;;0.30;0.30;;;;;;;5.03;99.11;99161.56;5023457;28;20112;-68
2022/02/04 00:54:59;;;;;;;0.40;0.40;;;;;;;5.00;99.10;99152.13;5023661;28;20026;-68
2022/02/04 01:06:29;;;;;;;0.30;0.30;;;;;;;5.10;99.36;99152.09;5065965;28;20539;-67
2022/02/04 01:27:27;;;;;;;0.30;0.30;;;;;;;5.20;99.41;99121.16;5065621;28;20032;-66
2022/02/04 01:30:36;;;;;;;0.30;0.30;;;;;;;5.21;99.40;99117.72;5065270;28;20017;-67
2022/02/04 01:32:41;;;;;;;0.30;0.30;;;;;;;5.25;99.39;99122.84;5062155;28;20092;-67
2022/02/04 01:35:06;;;;;;;0.30;0.30;;;;;;;5.25;99.35;99115.09;5065279;28;20025;-67
2022/02/04 01:37:32;;;;;;;0.30;0.30;;;;;;;5.25;99.52;99121.13;5065424;28;20056;-67
2022/02/04 01:39:57;;;;;;;0.40;0.40;;;;;;;5.25;99.52;99105.69;5065008;28;20045;-67
2022/02/04 01:42:23;;;;;;;0.40;0.40;;;;;;;5.27;99.36;99103.09;5065258;28;20051;-67
2022/02/04 01:44:48;;;;;;;0.30;0.30;;;;;;;5.28;99.46;99107.38;5065180;28;20400;-67
2022/02/04 01:47:14;;;;;;;0.30;0.30;;;;;;;5.28;99.27;99100.50;5065073;28;20017;-67
2022/02/04 01:49:39;;;;;;;0.30;0.30;;;;;;;5.25;99.44;99090.25;5065138;28;20089;-66
2022/02/04 01:52:05;;;;;;;0.40;0.40;;;;;;;5.24;99.35;99087.69;5065095;28;20456;-66
2022/02/04 01:54:30;;;;;;;0.40;0.40;;;;;;;5.24;99.19;99088.50;5065045;28;20092;-66
2022/02/04 01:56:55;;;;;;;0.30;0.30;;;;;;;5.25;99.29;99081.66;5064966;28;20078;-65
2022/02/04 01:59:21;;;;;;;0.57;0.57;;;;;;;5.26;99.36;99076.50;5064534;28;20029;-66
2022/02/04 02:01:46;;;;;;;0.40;0.40;;;;;;;5.29;99.69;99075.59;5065136;28;20021;-66
2022/02/04 02:04:13;;;;;;;0.30;0.30;;;;;;;5.34;99.76;99068.72;5064792;28;20025;-66
2022/02/04 02:06:40;;;;;;;0.30;0.30;;;;;;;5.36;99.59;99073.84;5064839;28;20439;-66
2022/02/04 02:09:05;;;;;;;0.30;0.30;;;;;;;5.37;99.70;99078.97;5064616;28;20392;-66
2022/02/04 02:11:31;;;;;;;0.30;0.30;;;;;;;5.35;99.73;99059.28;5064753;28;20052;-65
2022/02/04 02:13:56;;;;;;;0.30;0.30;;;;;;;5.37;99.52;99066.09;5064668;28;20025;-65
2022/02/04 02:32:54;;;;;;;0.40;0.40;;;;;;;5.36;99.49;99059.25;5064536;28;20483;-64
2022/02/04 02:35:49;;;;;;;0.30;0.30;;;;;;;5.29;99.44;99029.28;5064227;28;20035;-65
2022/02/04 02:51:37;;;;;;;0.30;0.30;;;;;;;5.36;99.80;98994.94;5063788;28;20017;-64
2022/02/04 02:54:39;;;;;;;0.30;0.30;;;;;;;5.36;99.59;98994.06;5063814;28;20237;-63
2022/02/04 02:57:38;;;;;;;0.20;0.20;;;;;;;5.38;99.59;98988.06;5063664;28;20021;-64
2022/02/04 03:00:06;;;;;;;0.30;0.30;;;;;;;5.40;99.94;98990.59;5063346;28;20097;-64
2022/02/04 03:02:32;;;;;;;0.30;0.30;;;;;;;5.37;99.59;98986.31;5063845;28;20036;-62
2022/02/04 03:04:57;;;;;;;0.30;0.30;;;;;;;5.36;99.82;98976.91;5063586;28;20071;-62
2022/02/04 03:07:23;;;;;;;0.30;0.30;;;;;;;5.37;99.53;98976.03;5063973;28;20020;-62
2022/02/04 03:09:48;;;;;;;0.30;0.30;;;;;;;5.36;99.59;98958.03;5063473;28;20547;-63
2022/02/04 03:12:13;;;;;;;0.30;0.30;;;;;;;5.32;99.52;98959.78;5063655;28;20024;-62
2022/02/04 03:14:39;;;;;;;0.30;0.30;;;;;;;5.30;99.34;98946.09;5063207;28;20021;-63
2022/02/04 03:17:08;;;;;;;0.30;0.30;;;;;;;5.30;99.62;98959.78;5063640;28;20051;-63
2022/02/04 03:19:34;;;;;;;0.30;0.30;;;;;;;5.29;99.35;98939.22;5062043;28;20023;-63
2022/02/04 03:22:05;;;;;;;0.30;0.30;;;;;;;5.26;99.48;98946.97;5063474;28;20080;-63
2022/02/04 03:24:31;;;;;;;0.30;0.30;;;;;;;5.26;99.56;98941.81;5063459;28;20025;-63
2022/02/04 03:27:00;;;;;;;0.30;0.30;;;;;;;5.25;99.18;98932.41;5063387;28;20020;-63
2022/02/04 03:29:35;;;;;;;0.30;0.30;;;;;;;5.25;99.67;98922.97;5063011;28;20115;-62
2022/02/04 03:32:06;;;;;;;0.38;0.38;;;;;;;5.24;99.51;98928.97;5062104;28;20021;-63
2022/02/04 03:34:31;;;;;;;0.30;0.30;;;;;;;5.25;99.69;98909.25;5063477;28;20024;-64
2022/02/04 03:36:57;;;;;;;0.30;0.30;;;;;;;5.25;99.46;98928.13;5063288;28;20017;-63
2022/02/04 03:39:22;;;;;;;0.30;0.30;;;;;;;5.26;99.48;98921.25;5063065;28;20033;-63
2022/02/04 03:41:47;;;;;;;0.30;0.30;;;;;;;5.26;99.50;98926.38;5063180;28;20032;-63
2022/02/04 03:44:13;;;;;;;0.40;0.40;;;;;;;5.27;99.44;98918.66;5063166;28;20052;-64
2022/02/04 03:46:38;;;;;;;0.30;0.30;;;;;;;5.28;99.53;98914.38;5063123;28;20020;-63
2022/02/04 03:49:03;;;;;;;0.45;0.45;;;;;;;5.28;99.51;98911.78;5063000;28;20032;-64
2022/02/04 03:51:29;;;;;;;0.30;0.30;;;;;;;5.29;99.80;98906.63;5063125;28;20101;-62
2022/02/04 03:53:54;;;;;;;0.30;0.30;;;;;;;5.30;99.62;98912.63;5063035;28;20127;-63
2022/02/04 03:56:20;;;;;;;0.40;0.40;;;;;;;5.33;99.76;98902.31;5062951;28;20036;-63
2022/02/04 03:58:45;;;;;;;0.40;0.40;;;;;;;5.35;99.83;98889.41;5062784;28;20025;-64
2022/02/04 04:01:11;;;;;;;0.30;0.30;;;;;;;5.36;99.74;98881.69;5063150;28;20017;-62
2022/02/04 04:03:36;;;;;;;0.35;0.35;;;;;;;5.39;99.88;98884.22;5067026;28;20059;-63
2022/02/04 04:06:02;;;;;;;0.30;0.30;;;;;;;5.42;99.83;98891.91;5066871;28;20025;-63
2022/02/04 04:08:27;;;;;;;0.30;0.30;;;;;;;5.32;99.83;98877.44;5066827;28;20105;-63
2022/02/04 04:10:53;;;;;;;0.30;0.30;;;;;;;5.44;99.84;98874.72;5066876;28;20016;-63
2022/02/04 04:13:19;;;;;;;0.30;0.30;;;;;;;5.46;99.68;98882.44;5066897;28;20025;-64
2022/02/04 04:15:47;;;;;;;0.30;0.30;;;;;;;5.46;99.84;98874.72;5066841;28;20048;-64
2022/02/04 04:18:12;;;;;;;0.35;0.35;;;;;;;5.49;99.72;98876.38;5066848;28;20029;-64
2022/02/04 04:20:43;;;;;;;0.40;0.40;;;;;;;5.48;99.84;98872.13;5066690;28;20017;-64
2022/02/04 04:23:09;;;;;;;0.40;0.40;;;;;;;5.48;99.82;98864.41;5066761;28;20108;-63
2022/02/04 04:25:34;;;;;;;0.32;0.32;;;;;;;5.48;99.55;98869.53;5066775;28;20055;-64
2022/02/04 04:28:00;;;;;;;0.30;0.30;;;;;;;5.50;99.55;98860.06;5066521;28;20337;-63
2022/02/04 04:30:25;;;;;;;0.30;0.30;;;;;;;5.50;99.66;98867.78;5066282;28;20094;-65
2022/02/04 04:32:55;;;;;;;0.30;0.30;;;;;;;5.50;99.68;98867.78;5066448;28;20017;-65
2022/02/04 04:35:24;;;;;;;0.40;0.40;;;;;;;5.51;99.72;98864.34;5066283;28;20047;-64
2022/02/04 04:37:57;;;;;;;0.30;0.30;;;;;;;5.52;99.73;98845.44;5066540;28;20032;-64
2022/02/04 05:26:58;;;;;;;0.30;0.30;;;;;;;5.37;99.75;98829.34;5065522;28;20052;-62
2022/02/04 05:29:17;;;;;;;0.40;0.40;;;;;;;5.37;99.65;98833.66;5065173;28;20032;-63
2022/02/04 05:31:43;;;;;;;0.30;0.30;;;;;;;5.35;99.52;98807.06;5065186;28;20469;-63
2022/02/04 05:34:09;;;;;;;0.38;0.38;;;;;;;5.30;99.48;98812.28;5065208;28;20092;-62
2022/02/04 05:36:39;;;;;;;0.30;0.30;;;;;;;5.27;99.44;98825.19;5065632;28;20027;-63
2022/02/04 05:39:04;;;;;;;0.32;0.32;;;;;;;5.27;99.53;98826.00;5065561;28;20043;-63
2022/02/04 05:41:37;;;;;;;0.30;0.30;;;;;;;5.24;99.50;98804.63;5065159;28;20528;-64
2022/02/04 05:44:05;;;;;;;0.30;0.30;;;;;;;5.21;99.47;98813.22;5065116;28;20465;-64
2022/02/04 05:46:35;;;;;;;0.40;0.40;;;;;;;5.19;99.54;98794.41;5063782;28;20083;-64
2022/02/04 05:49:02;;;;;;;0.30;0.30;;;;;;;5.19;99.38;98784.13;5065062;28;20032;-63
2022/02/04 05:51:40;;;;;;;0.30;0.30;;;;;;;5.17;99.34;98794.44;5065169;28;20069;-63
2022/02/04 05:57:11;;;;;;;0.35;0.35;;;;;;;5.17;99.68;98798.72;5065187;28;20056;-62
2022/02/04 06:05:17;;;;;;;0.40;0.40;;;;;;;5.13;99.38;98776.47;5042101;28;20033;-63
2022/02/04 06:10:56;;;;;;;0.30;0.30;;;;;;;5.13;99.58;98772.16;5042109;28;20035;-63
2022/02/04 06:24:15;;;;;;;0.30;0.30;;;;;;;5.10;99.57;98749.06;5001433;28;20037;-63
2022/02/04 06:26:40;;;;;;;0.32;0.32;;;;;;;5.10;99.44;98746.47;5001574;28;20077;-63
2022/02/04 06:29:07;;;;;;;0.40;0.40;;;;;;;5.15;99.53;98741.28;5001893;28;20077;-63
2022/02/04 06:31:32;;;;;;;0.30;0.30;;;;;;;5.15;99.27;98759.28;5001959;28;20148;-63
2022/02/04 06:33:58;;;;;;;0.40;0.40;;;;;;;5.08;99.46;98727.63;5001969;28;20038;-62
2022/02/04 06:36:24;;;;;;;0.30;0.30;;;;;;;5.15;99.43;98730.97;5002049;28;20073;-62
2022/02/04 06:38:49;;;;;;;0.30;0.30;;;;;;;5.14;99.38;98719.00;4985410;28;20034;-63
2022/02/04 06:41:15;;;;;;;0.38;0.38;;;;;;;5.13;99.35;98745.59;5001731;28;20556;-63
2022/02/04 06:43:40;;;;;;;0.30;0.30;;;;;;;5.10;99.29;98725.91;5001762;28;20026;-63
2022/02/04 06:46:05;;;;;;;0.40;0.40;;;;;;;5.09;99.54;98719.06;5001816;28;20191;-63
2022/02/04 06:48:31;;;;;;;0.38;0.38;;;;;;;5.09;99.55;98721.63;5002134;28;20522;-63
2022/02/04 06:50:56;;;;;;;0.30;0.30;;;;;;;5.09;99.52;98711.34;5001718;28;20027;-63
2022/02/04 06:53:22;;;;;;;0.30;0.30;;;;;;;5.10;99.57;98707.88;5040440;28;20039;-64
2022/02/04 06:55:47;;;;;;;0.30;0.30;;;;;;;5.10;99.37;98714.78;5063858;28;20439;-65
2022/02/04 06:58:13;;;;;;;0.30;0.30;;;;;;;5.08;99.51;98718.19;5063681;28;20032;-64
2022/02/04 07:00:39;;;;;;;0.30;0.30;;;;;;;5.01;99.38;98696.00;5063097;28;20021;-64
2022/02/04 07:03:06;;;;;;;0.30;0.30;;;;;;;5.08;99.20;98707.06;5063969;28;20032;-64
2022/02/04 07:05:39;;;;;;;0.30;0.30;;;;;;;5.04;99.30;98700.25;5063513;28;20085;-63
2022/02/04 07:08:19;;;;;;;0.30;0.30;;;;;;;5.00;99.35;98688.31;5063851;28;20131;-64
2022/02/04 07:15:51;;;;;;;6.60;2.67;;;;;;;4.99;99.00;98687.47;5063511;28;20029;-63
2022/02/04 07:21:02;;;;;;;0.40;0.40;;;;;;;5.00;99.17;98683.19;5063417;28;20031;-62
2022/02/04 07:23:29;;;;;;;0.50;0.50;;;;;;;4.99;99.15;98676.31;5063455;28;20112;-63
2022/02/04 07:25:55;;;;;;;0.30;0.30;;;;;;;4.99;99.28;98689.16;5063496;28;20075;-63
2022/02/04 07:28:20;;;;;;;0.75;0.75;;;;;;;4.96;99.28;98679.78;5063258;28;20021;-63
2022/02/04 07:30:45;;;;;;;0.40;0.40;;;;;;;4.96;98.88;98657.50;5063259;28;20048;-63
2022/02/04 07:33:18;;;;;;;0.82;0.82;;;;;;;4.95;98.86;98671.22;5063517;28;20029;-63
2022/02/04 07:38:48;;;;;;;0.40;0.40;;;;;;;4.94;98.81;98666.09;5063506;28;20035;-64
2022/02/04 07:41:18;;;;;;;0.40;0.40;;;;;;;4.94;98.73;98660.94;5063096;28;20056;-62
2022/02/04 07:43:44;;;;;;;0.40;0.40;;;;;;;4.86;99.07;98653.34;5063312;28;20070;-62
2022/02/04 07:46:11;;;;;;;0.40;0.40;;;;;;;4.92;99.04;98658.41;5063121;28;20035;-63
2022/02/04 07:48:37;;;;;;;0.40;0.40;;;;;;;4.91;99.18;98654.13;5063170;28;20020;-62
2022/02/04 07:51:02;;;;;;;0.30;0.30;;;;;;;4.92;99.35;98640.41;5063172;28;20526;-62
2022/02/04 07:53:33;;;;;;;0.30;0.30;;;;;;;5.00;99.18;98649.75;5063356;28;20058;-62
2022/02/04 07:55:58;;;;;;;0.90;0.90;;;;;;;4.98;98.99;98636.03;5063272;28;20024;-62
2022/02/04 07:58:24;;;;;;;0.40;0.40;;;;;;;4.93;99.12;98631.81;5063423;28;20021;-63
2022/02/04 08:00:51;;;;;;;1.13;1.13;;;;;;;4.98;98.69;98648.91;5063020;28;20022;-63
2022/02/04 08:06:14;;;;;;;0.93;0.93;;;;;;;4.95;98.99;98635.22;5063165;28;20174;-63
2022/02/04 08:09:30;;;;;;;0.73;0.73;;;;;;;4.94;98.92;98638.66;5062981;28;20049;-62
2022/02/04 08:14:12;;;;;;;0.38;0.38;;;;;;;4.91;98.90;98631.00;5063020;28;20021;-63
2022/02/04 08:49:19;;;;;;;0.68;0.65;;;;;;;4.77;99.06;98605.47;5064658;28;20024;-65
2022/02/04 08:54:13;;;;;;;0.93;0.93;;;;;;;4.79;99.13;98608.03;5066319;28;20473;-64
2022/02/04 08:56:21;;;;;;;0.40;0.40;;;;;;;4.76;99.33;98596.03;5063063;28;20029;-64
2022/02/04 08:58:54;;;;;;;0.30;0.30;;;;;;;4.81;99.23;98607.13;5066242;28;20028;-65
2022/02/04 09:01:25;;;;;;;0.40;0.40;;;;;;;4.77;99.49;98604.63;5066150;28;20021;-66
2022/02/04 09:04:03;;;;;;;0.40;0.40;;;;;;;4.78;99.53;98594.31;5066106;28;20031;-64
2022/02/04 09:06:35;;;;;;;0.30;0.30;;;;;;;4.81;99.45;98612.25;5066228;28;20091;-64
2022/02/04 09:09:01;;;;;;;0.32;0.32;;;;;;;4.84;99.66;98578.78;5064748;28;20031;-63
2022/02/04 09:17:12;;;;;;;0.50;0.50;;;;;;;4.81;99.84;98596.84;5065744;28;20059;-63
2022/02/04 09:19:49;;;;;;;0.50;0.50;;;;;;;4.84;99.51;98593.34;5065734;28;20024;-62
2022/02/04 09:22:27;;;;;;;0.50;0.50;;;;;;;4.83;99.60;98582.25;5064461;28;20032;-63
2022/02/04 09:24:53;;;;;;;0.30;0.30;;;;;;;4.84;99.43;98583.94;5065605;28;20029;-63
2022/02/04 09:27:18;;;;;;;0.30;0.30;;;;;;;4.87;99.39;98584.78;5065823;28;20393;-64
2022/02/04 09:29:44;;;;;;;0.35;0.35;;;;;;;4.87;99.61;98585.63;5065485;28;20037;-64
2022/02/04 09:32:09;;;;;;;0.40;0.40;;;;;;;4.89;99.58;98599.28;5065520;28;20029;-64
2022/02/04 09:34:34;;;;;;;0.30;0.30;;;;;;;4.92;99.51;98583.00;5065412;28;20025;-64
2022/02/04 09:37:00;;;;;;;0.30;0.30;;;;;;;4.88;99.50;98582.19;5065480;28;20013;-64
2022/02/04 09:39:25;;;;;;;0.40;0.40;;;;;;;4.88;99.50;98581.31;5065277;28;20491;-63
2022/02/04 09:41:51;;;;;;;0.30;0.30;;;;;;;4.90;99.61;98589.88;5065193;28;20032;-64
2022/02/04 09:44:16;;;;;;;0.38;0.38;;;;;;;4.92;99.62;98591.53;5065049;28;20017;-64
2022/02/04 09:46:42;;;;;;;0.22;0.22;;;;;;;4.91;99.69;98576.13;5065139;28;20473;-63
2022/02/04 09:49:17;;;;;;;0.35;0.35;;;;;;;4.92;99.65;98576.09;5065154;28;20021;-63
2022/02/04 10:11:05;;;;;;;0.32;0.32;;;;;;;5.06;100.00;98581.03;5064791;28;20033;-64
2022/02/04 10:19:03;;;;;;;0.40;0.40;;;;;;;4.93;99.17;98603.53;5064891;28;20036;-65
2022/02/04 10:21:29;;;;;;;0.30;0.30;;;;;;;4.78;98.75;98609.72;5064436;28;20025;-65
2022/02/04 10:23:59;;;;;;;0.30;0.30;;;;;;;4.67;98.65;98609.88;5064236;28;20056;-65
2022/02/04 10:26:25;;;;;;;0.40;0.40;;;;;;;4.62;98.78;98611.66;5064481;28;20032;-66
2022/02/04 10:28:51;;;;;;;0.40;0.40;;;;;;;4.59;98.91;98607.41;5064429;28;20067;-66
2022/02/04 10:31:34;;;;;;;0.30;0.30;;;;;;;4.57;98.96;98603.16;5064197;28;20050;-66
2022/02/04 10:34:00;;;;;;;0.40;0.40;;;;;;;4.56;98.99;98596.31;5064296;28;20028;-67
2022/02/04 10:40:17;;;;;;;0.32;0.32;;;;;;;4.54;99.08;98595.47;5064287;28;20472;-67
2022/02/04 10:42:28;;;;;;;0.40;0.40;;;;;;;4.55;99.23;98599.78;5058285;28;20041;-67
2022/02/04 10:47:48;;;;;;;0.40;0.40;;;;;;;4.54;99.30;98598.03;5064343;28;20159;-65
2022/02/04 11:03:35;;;;;;;0.30;0.30;;;;;;;4.37;99.03;98591.41;5063948;28;20513;-66
2022/02/04 11:33:51;;;;;;;0.35;0.35;;;;;;;4.31;99.16;98571.78;5041057;28;20092;-67
2022/02/04 11:48:44;;;;;;;0.40;0.40;;;;;;;4.36;99.27;98564.00;5063314;28;20515;-67
2022/02/04 11:54:29;;;;;;;0.40;0.40;;;;;;;4.33;99.05;98559.78;5063374;28;20658;-67
2022/02/04 11:57:09;;;;;;;0.30;0.30;;;;;;;4.27;98.91;98562.41;5063060;28;20033;-68
2022/02/04 11:59:36;;;;;;;0.38;0.38;;;;;;;4.25;98.73;98558.19;5061811;28;20043;-67
2022/02/04 12:02:22;;;;;;;0.30;0.30;;;;;;;4.20;98.74;98553.94;5062870;28;20104;-68
2022/02/04 12:04:48;;;;;;;0.38;0.38;;;;;;;4.20;98.83;98559.06;5062804;28;20032;-67
2022/02/04 12:07:39;;;;;;;0.32;0.32;;;;;;;4.16;98.53;98556.56;5063074;28;20025;-67
2022/02/04 12:10:14;;;;;;;0.50;0.50;;;;;;;4.16;98.78;98564.25;5062813;28;20021;-67
2022/02/04 12:13:09;;;;;;;0.30;0.30;;;;;;;4.15;98.82;98553.16;5062723;28;20021;-67
2022/02/04 12:15:36;;;;;;;0.30;0.30;;;;;;;4.11;98.72;98546.34;5062044;28;20041;-67
2022/02/04 12:18:10;;;;;;;0.30;0.30;;;;;;;4.11;98.85;98548.91;5061782;28;20044;-68
2022/02/04 12:20:44;;;;;;;0.30;0.30;;;;;;;4.11;98.55;98546.34;5062901;28;20029;-66
2022/02/04 12:25:54;;;;;;;0.30;0.30;;;;;;;4.07;98.47;98537.00;5066736;28;20048;-68
2022/02/04 12:29:05;;;;;;;0.40;0.40;;;;;;;4.08;98.72;98534.41;5066683;28;20025;-67
2022/02/04 12:31:36;;;;;;;0.32;0.32;;;;;;;4.09;98.61;98524.94;5044136;28;20573;-66
2022/02/04 12:34:01;;;;;;;0.30;0.30;;;;;;;4.11;98.71;98522.38;5043929;28;20038;-66
2022/02/04 12:36:50;;;;;;;0.40;0.40;;;;;;;4.09;98.49;98517.25;5043762;28;20036;-66
2022/02/04 12:39:24;;;;;;;0.40;0.40;;;;;;;4.06;98.71;98518.16;5043687;28;20033;-67
2022/02/04 12:41:55;;;;;;;0.30;0.30;;;;;;;4.06;98.55;98517.28;5043821;28;20034;-66
2022/02/04 12:44:21;;;;;;;0.30;0.30;;;;;;;4.06;98.56;98510.44;5043674;28;20025;-65
2022/02/04 12:46:50;;;;;;;0.30;0.30;;;;;;;4.04;98.59;98516.47;5043712;28;20263;-66
2022/02/04 12:49:17;;;;;;;0.30;0.30;;;;;;;3.98;98.18;98512.25;5043521;28;20056;-65
2022/02/04 12:54:45;;;;;;;0.30;0.30;;;;;;;3.94;98.38;98515.75;5043319;28;20026;-66
2022/02/04 12:59:54;;;;;;;0.30;0.30;;;;;;;3.91;98.48;98510.63;5043182;28;20459;-66
2022/02/04 13:02:36;;;;;;;0.40;0.40;;;;;;;3.90;98.42;98507.22;5043305;28;20036;-66
2022/02/04 13:07:57;;;;;;;0.40;0.40;;;;;;;3.91;98.36;98513.22;5066222;28;20479;-65
2022/02/04 13:10:25;;;;;;;0.40;0.40;;;;;;;3.88;98.45;98497.84;5065870;28;20036;-66
2022/02/04 13:12:52;;;;;;;0.40;0.40;;;;;;;3.87;98.50;98499.53;5064644;28;20029;-66
2022/02/04 13:15:18;;;;;;;0.30;0.30;;;;;;;3.86;98.54;98500.44;5065603;28;20461;-67
2022/02/04 13:17:44;;;;;;;0.40;0.40;;;;;;;3.79;98.38;98481.66;5065893;28;20027;-65
2022/02/04 13:20:11;;;;;;;0.40;0.40;;;;;;;3.79;98.18;98496.22;5065763;28;20048;-64
2022/02/04 13:22:38;;;;;;;0.40;0.40;;;;;;;3.71;97.99;98494.59;5065744;28;20147;-65
2022/02/04 13:25:04;;;;;;;0.40;0.40;;;;;;;3.69;98.04;98491.19;5065561;28;20374;-65
2022/02/04 13:27:29;;;;;;;0.30;0.30;;;;;;;3.61;98.21;98479.31;5065867;28;20100;-65
2022/02/04 13:29:54;;;;;;;0.40;0.40;;;;;;;3.59;98.34;98471.66;5065295;28;20040;-65
2022/02/04 13:32:24;;;;;;;0.30;0.30;;;;;;;3.64;98.30;98482.72;5065372;28;20028;-66
2022/02/04 13:34:51;;;;;;;0.40;0.40;;;;;;;3.64;98.29;98482.72;5065205;28;20025;-65
2022/02/04 13:37:31;;;;;;;0.30;0.30;;;;;;;3.60;98.31;98470.75;5065512;28;20025;-65
2022/02/04 13:40:03;;;;;;;0.40;0.40;;;;;;;3.65;98.37;98478.41;5065134;28;20052;-66
2022/02/04 13:42:41;;;;;;;0.40;0.40;;;;;;;3.64;98.26;98475.03;5065443;28;20432;-66
2022/02/04 13:45:27;;;;;;;0.30;0.30;;;;;;;3.61;98.46;98475.03;5064918;28;20033;-66
2022/02/04 13:48:03;;;;;;;0.40;0.40;;;;;;;3.56;98.17;98476.81;5065297;28;20024;-66
2022/02/04 13:50:43;;;;;;;0.30;0.30;;;;;;;3.47;98.26;98473.47;5065145;28;20029;-65
2022/02/04 13:53:16;;;;;;;0.40;0.40;;;;;;;3.46;98.49;98473.50;5065341;28;20025;-66
2022/02/04 14:01:09;;;;;;;0.38;0.38;;;;;;;3.46;98.21;98478.63;5065063;28;20021;-65
2022/02/04 14:03:41;;;;;;;0.40;0.40;;;;;;;3.40;98.14;98478.69;5065077;28;20051;-66
2022/02/04 14:06:12;;;;;;;;;;;;;;;3.37;98.02;98488.97;5065157;28;20025;-66
2022/02/04 14:11:26;;;;;;;0.40;0.40;;;;;;;3.28;98.27;98489.91;5064900;28;20021;-67
2022/02/04 14:13:53;;;;;;;0.32;0.32;;;;;;;3.22;98.26;98472.88;5064984;28;20108;-66
2022/02/04 14:16:20;;;;;;;0.30;0.30;;;;;;;3.15;98.14;98484.91;5064696;28;20016;-66
2022/02/04 14:18:46;;;;;;;0.30;0.30;;;;;;;3.11;98.41;98475.53;5064979;28;20041;-67
2022/02/04 14:21:11;;;;;;;0.40;0.40;;;;;;;3.09;98.16;98479.81;5064572;28;20020;-67
2022/02/04 14:23:37;;;;;;;0.32;0.32;;;;;;;3.07;98.30;98477.28;5064714;28;20021;-67
2022/02/04 14:26:13;;;;;;;0.40;0.40;;;;;;;3.06;98.30;98472.16;5064733;28;20053;-68
2022/02/04 14:36:16;;;;;;;0.40;0.40;;;;;;;2.93;98.36;98468.84;5064493;28;20025;-67
2022/02/04 14:52:31;;;;;;;0.30;0.30;;;;;;;2.38;97.62;98474.38;5064098;28;20017;-67
2022/02/04 15:02:48;;;;;;;0.40;0.40;;;;;;;2.15;97.79;98467.69;5064134;28;20029;-67
2022/02/04 15:05:18;;;;;;;0.40;0.40;;;;;;;2.15;97.89;98464.28;5063748;28;20037;-66
2022/02/04 15:07:44;;;;;;;0.30;0.30;;;;;;;2.13;98.00;98466.84;5063936;28;20025;-65
2022/02/04 15:10:15;;;;;;;0.40;0.40;;;;;;;2.17;98.07;98465.94;5063565;28;20017;-67
2022/02/04 15:12:42;;;;;;;0.30;0.30;;;;;;;2.21;98.40;98462.53;5063983;28;20055;-66
2022/02/04 15:15:08;;;;;;;0.40;0.40;;;;;;;2.21;98.45;98452.28;5063559;28;20028;-66
2022/02/04 15:17:34;;;;;;;0.40;0.40;;;;;;;2.23;98.52;98454.84;5063382;28;20039;-68
2022/02/04 15:19:59;;;;;;;0.32;0.32;;;;;;;2.26;98.44;98451.41;5063704;28;20021;-67
2022/02/04 15:22:26;;;;;;;0.30;0.30;;;;;;;2.27;98.61;98450.56;5063736;28;20028;-68
2022/02/04 15:24:56;;;;;;;0.40;0.40;;;;;;;2.27;98.40;98450.56;5063519;28;20021;-68
2022/02/04 15:27:22;;;;;;;0.40;0.40;;;;;;;2.28;98.50;98442.00;5063571;28;20024;-68
2022/02/04 15:29:50;;;;;;;0.40;0.40;;;;;;;2.27;98.68;98445.44;5063349;28;20025;-66
2022/02/04 15:32:15;;;;;;;0.30;0.30;;;;;;;2.26;98.54;98441.16;5063396;28;20021;-68
2022/02/04 15:34:41;;;;;;;0.30;0.30;;;;;;;2.23;98.42;98447.16;5063054;28;20135;-67
2022/02/04 15:37:07;;;;;;;0.30;0.30;;;;;;;2.22;98.39;98441.19;5063383;28;20029;-68
2022/02/04 15:39:34;;;;;;;0.30;0.30;;;;;;;2.24;98.67;98443.72;5063355;28;20074;-68
2022/02/04 15:42:07;;;;;;;0.30;0.30;;;;;;;2.26;98.68;98438.59;5063446;28;20028;-68
2022/02/04 15:47:26;;;;;;;0.40;0.40;;;;;;;2.23;98.51;98437.78;5063159;28;20056;-67
2022/02/04 15:50:05;;;;;;;0.40;0.40;;;;;;;2.21;98.31;98433.50;5063330;28;20100;-66
2022/02/04 16:05:44;;;;;;;0.35;0.35;;;;;;;2.22;98.54;98427.53;5067359;28;20093;-67
2022/02/04 16:08:14;;;;;;;0.30;0.30;;;;;;;2.15;98.65;98421.59;5067361;28;20021;-67
2022/02/04 16:10:58;;;;;;;0.40;0.40;;;;;;;2.15;98.56;98413.94;5067067;28;20028;-66
2022/02/04 16:13:40;;;;;;;0.35;0.35;;;;;;;2.10;98.42;98415.66;5067327;28;20391;-66
2022/02/04 16:18:38;;;;;;;0.40;0.40;;;;;;;2.04;98.38;98410.56;5067136;28;19909;-66
2022/02/04 16:23:47;;;;;;;0.30;0.30;;;;;;;2.05;98.46;98417.38;5066953;28;20106;-66
2022/02/04 16:31:04;;;;;;;0.40;0.40;;;;;;;2.04;98.55;98424.25;5066648;28;20108;-66
2022/02/04 16:33:29;;;;;;;0.40;0.40;;;;;;;2.04;98.50;98414.00;5066782;28;20028;-65
2022/02/04 16:36:03;;;;;;;0.40;0.40;;;;;;;2.08;98.55;98419.94;5066657;28;20032;-66
2022/02/04 16:38:29;;;;;;;0.40;0.40;;;;;;;2.10;98.64;98411.41;5066657;28;20033;-66
2022/02/04 16:40:56;;;;;;;0.40;0.40;;;;;;;2.12;98.68;98416.50;5066015;28;20400;-65
2022/02/04 16:43:23;;;;;;;0.40;0.40;;;;;;;2.12;98.46;98419.06;5066567;28;20033;-66
2022/02/04 16:45:50;;;;;;;0.40;0.40;;;;;;;2.11;98.50;98412.22;5066040;28;20024;-66
2022/02/04 16:48:16;;;;;;;0.40;0.40;;;;;;;2.14;98.72;98416.50;5066346;28;20029;-66
2022/02/04 16:50:44;;;;;;;0.30;0.30;;;;;;;2.14;98.55;98412.22;5066011;28;20032;-66
2022/02/04 16:53:09;;;;;;;0.40;0.40;;;;;;;2.15;98.46;98415.63;5066528;28;20025;-65
2022/02/04 16:55:35;;;;;;;0.40;0.40;;;;;;;2.12;98.55;98413.94;5065847;28;20477;-65
2022/02/04 16:58:00;;;;;;;0.40;0.40;;;;;;;2.10;98.36;98416.53;5066166;28;20080;-66
2022/02/04 17:00:26;;;;;;;0.32;0.32;;;;;;;2.13;98.48;98423.31;5065705;28;20056;-64
2022/02/04 17:02:56;;;;;;;0.40;0.40;;;;;;;2.13;98.37;98431.00;5066050;28;20043;-65
2022/02/04 17:05:24;;;;;;;0.30;0.30;;;;;;;2.21;98.56;98449.72;5065607;28;20623;-66
2022/02/04 17:08:06;;;;;;;0.40;0.40;;;;;;;2.21;98.53;98439.50;5065101;28;20079;-66
2022/02/04 17:10:32;;;;;;;0.50;0.50;;;;;;;2.14;98.24;98437.81;5065578;28;20072;-66
2022/02/04 17:13:01;;;;;;;0.40;0.40;;;;;;;2.10;98.15;98437.00;5065853;28;20031;-67
2022/02/04 17:15:28;;;;;;;0.35;0.35;;;;;;;2.07;98.01;98428.47;5065466;28;20032;-65
2022/02/04 17:17:54;;;;;;;0.40;0.40;;;;;;;2.03;97.97;98426.81;5065845;28;20052;-66
2022/02/04 17:20:20;;;;;;;0.30;0.30;;;;;;;1.96;97.79;98426.84;5065392;28;20481;-65
2022/02/04 17:22:46;;;;;;;0.30;0.30;;;;;;;1.94;97.74;98422.56;5065630;28;20028;-65
2022/02/04 17:25:12;;;;;;;0.38;0.38;;;;;;;1.87;97.41;98421.75;5065244;28;20028;-65
2022/02/04 17:27:41;;;;;;;0.40;0.40;;;;;;;1.80;97.34;98417.53;5065410;28;20570;-67
2022/02/04 17:30:10;;;;;;;0.40;0.40;;;;;;;1.78;97.49;98417.53;5065029;28;20033;-64
2022/02/04 17:32:36;;;;;;;0.40;0.40;;;;;;;1.77;97.62;98409.88;5065424;28;20287;-67
2022/02/04 17:35:02;;;;;;;0.40;0.40;;;;;;;1.75;97.91;98420.13;5065152;28;20027;-68
2022/02/04 17:37:27;;;;;;;0.40;0.40;;;;;;;1.77;97.76;98423.53;5065383;28;20076;-66
2022/02/04 17:39:55;;;;;;;0.40;0.40;;;;;;;1.70;97.79;98414.16;5065068;28;20358;-66
2022/02/04 17:42:24;;;;;;;0.40;0.40;;;;;;;1.77;97.93;98427.78;5065277;28;20449;-65
2022/02/04 17:44:50;;;;;;;0.40;0.40;;;;;;;1.78;98.11;98434.59;5064854;28;20031;-64
2022/02/04 17:47:16;;;;;;;0.40;0.40;;;;;;;1.80;98.13;98433.75;5065024;28;20036;-65
2022/02/04 17:50:06;;;;;;;0.40;0.40;;;;;;;1.85;98.25;98432.00;5065141;28;20051;-68
2022/02/04 17:55:11;;;;;;;0.50;0.50;;;;;;;1.94;98.73;98437.94;5064945;28;20544;-64
2022/02/04 17:57:41;;;;;;;0.32;0.32;;;;;;;1.97;98.58;98443.88;5064723;28;20036;-64
2022/02/04 18:03:10;;;;;;;0.40;0.40;;;;;;;2.08;98.76;98437.84;5064837;28;20122;-64
2022/02/04 18:08:01;;;;;;;0.40;0.40;;;;;;;2.17;98.85;98434.41;5064889;28;20380;-65
2022/02/04 18:10:26;;;;;;;0.40;0.40;;;;;;;2.24;98.89;98433.50;5064790;28;20043;-66
2022/02/04 18:12:52;;;;;;;0.40;0.40;;;;;;;2.27;99.05;98427.50;5064124;28;20033;-65
2022/02/04 18:15:18;;;;;;;0.40;0.40;;;;;;;2.32;98.79;98426.63;5063741;28;20024;-66